createdAt,value
2022-11-20T00:00:31.792Z,94.76
2022-11-20T00:01:31.806Z,94.02
2022-11-20T00:02:31.774Z,94.45
2022-11-20T00:03:31.771Z,94.02
2022-11-20T00:04:31.766Z,94.13
2022-11-20T00:05:31.743Z,93.70
2022-11-20T00:06:31.748Z,93.70
2022-11-20T00:07:31.885Z,93.91
2022-11-20T00:08:31.730Z,93.91
2022-11-20T00:09:31.722Z,93.28
2022-11-20T00:10:31.722Z,92.86
2022-11-20T00:11:31.718Z,92.65
2022-11-20T00:12:31.712Z,92.65
2022-11-20T00:13:31.696Z,92.75
2022-11-20T00:14:31.694Z,92.96
2022-11-20T00:15:31.689Z,93.60
2022-11-20T00:16:31.679Z,94.02
2022-11-20T00:17:31.677Z,94.02
2022-11-20T00:18:31.665Z,94.45
2022-11-20T00:19:31.669Z,94.23
2022-11-20T00:20:31.657Z,94.02
2022-11-20T00:21:31.652Z,94.23
2022-11-20T00:22:31.656Z,93.91
2022-11-20T00:23:31.632Z,94.13
2022-11-20T00:24:31.645Z,94.61
2022-11-20T00:25:31.624Z,94.55
2022-11-20T00:26:31.621Z,94.61
2022-11-20T00:27:31.612Z,94.13
2022-11-20T00:28:31.602Z,94.09
2022-11-20T00:29:31.612Z,93.70
2022-11-20T00:30:31.586Z,93.49
2022-11-20T00:31:31.590Z,93.28
2022-11-20T00:32:31.577Z,92.65
2022-11-20T00:33:31.569Z,92.75
2022-11-20T00:34:31.586Z,92.01
2022-11-20T00:35:31.571Z,92.43
2022-11-20T00:36:31.555Z,91.80
2022-11-20T00:37:31.545Z,91.69
2022-11-20T00:38:31.541Z,91.38
2022-11-20T00:39:31.537Z,91.52
2022-11-20T00:40:31.525Z,91.59
2022-11-20T00:41:31.525Z,91.80
2022-11-20T00:42:31.518Z,91.84
2022-11-20T00:43:31.513Z,91.84
2022-11-20T00:44:31.517Z,92.05
2022-11-20T00:45:31.497Z,91.84
2022-11-20T00:46:31.491Z,91.88
2022-11-20T00:47:31.490Z,92.20
2022-11-20T00:48:31.482Z,92.41
2022-11-20T00:49:31.482Z,93.26
2022-11-20T00:50:31.465Z,93.83
2022-11-20T00:51:31.462Z,93.83
2022-11-20T00:52:31.449Z,93.93
2022-11-20T00:53:31.449Z,94.46
2022-11-20T00:54:31.448Z,95.10
2022-11-20T00:55:31.440Z,95.42
2022-11-20T00:56:31.414Z,95.73
2022-11-20T00:57:31.416Z,95.06
2022-11-20T00:58:31.417Z,95.80
2022-11-20T00:59:31.406Z,95.84
2022-11-20T01:00:31.413Z,95.48
2022-11-20T01:01:31.493Z,95.69
2022-11-20T01:02:31.379Z,95.59
2022-11-20T01:03:31.377Z,95.37
2022-11-20T01:04:31.381Z,95.80
2022-11-20T01:05:31.368Z,95.69
2022-11-20T01:06:31.388Z,95.69
2022-11-20T01:07:31.465Z,95.59
2022-11-20T01:08:31.361Z,95.80
2022-11-20T01:09:31.352Z,95.33
2022-11-20T01:10:31.357Z,96.12
2022-11-20T01:11:31.364Z,95.69
2022-11-20T01:12:31.336Z,95.59
2022-11-20T01:13:31.333Z,95.27
2022-11-20T01:14:31.329Z,96.01
2022-11-20T01:15:31.313Z,95.80
2022-11-20T01:16:31.334Z,95.90
2022-11-20T01:17:31.297Z,95.80
2022-11-20T01:18:31.301Z,95.59
2022-11-20T01:19:31.296Z,95.65
2022-11-20T01:20:31.289Z,95.12
2022-11-20T01:21:31.293Z,95.17
2022-11-20T01:22:31.289Z,94.95
2022-11-20T01:23:31.264Z,94.74
2022-11-20T01:24:31.265Z,95.06
2022-11-20T01:25:31.248Z,95.27
2022-11-20T01:26:31.242Z,94.36
2022-11-20T01:27:31.245Z,94.25
2022-11-20T01:28:31.232Z,94.78
2022-11-20T01:29:31.220Z,95.10
2022-11-20T01:30:31.225Z,95.84
2022-11-20T01:31:31.205Z,95.84
2022-11-20T01:32:31.221Z,95.84
2022-11-20T01:33:31.222Z,95.80
2022-11-20T01:34:31.201Z,96.05
2022-11-20T01:35:31.196Z,95.84
2022-11-20T01:36:31.181Z,95.73
2022-11-20T01:37:31.181Z,95.69
2022-11-20T01:38:31.200Z,95.17
2022-11-20T01:39:31.161Z,95.17
2022-11-20T01:40:31.169Z,95.06
2022-11-20T01:41:31.157Z,94.53
2022-11-20T01:42:31.156Z,94.53
2022-11-20T01:43:31.136Z,94.42
2022-11-20T01:44:31.149Z,94.21
2022-11-20T01:45:31.133Z,94.00
2022-11-20T01:46:31.125Z,94.10
2022-11-20T01:47:31.117Z,94.10
2022-11-20T01:48:31.114Z,94.36
2022-11-20T01:49:31.129Z,94.25
2022-11-20T01:50:31.105Z,94.04
2022-11-20T01:51:31.107Z,94.36
2022-11-20T01:52:31.080Z,94.04
2022-11-20T01:53:31.092Z,94.04
2022-11-20T01:54:31.089Z,94.57
2022-11-20T01:55:31.088Z,94.78
2022-11-20T01:56:31.072Z,94.51
2022-11-20T01:57:31.055Z,94.93
2022-11-20T01:58:31.051Z,94.57
2022-11-20T01:59:32.061Z,94.68
2022-11-20T02:00:31.040Z,94.46
2022-11-20T02:01:31.103Z,94.57
2022-11-20T02:02:31.036Z,94.78
2022-11-20T02:03:31.025Z,94.25
2022-11-20T02:04:31.024Z,94.57
2022-11-20T02:05:31.017Z,94.78
2022-11-20T02:06:31.025Z,94.21
2022-11-20T02:07:31.105Z,95.73
2022-11-20T02:08:31.008Z,96.26
2022-11-20T02:09:30.994Z,96.12
2022-11-20T02:10:30.987Z,95.73
2022-11-20T02:11:30.993Z,96.48
2022-11-20T02:12:30.972Z,96.58
2022-11-20T02:13:30.964Z,96.80
2022-11-20T02:14:30.965Z,96.58
2022-11-20T02:15:30.965Z,96.80
2022-11-20T02:16:30.955Z,96.58
2022-11-20T02:17:30.952Z,96.58
2022-11-20T02:18:30.936Z,96.44
2022-11-20T02:19:30.958Z,96.37
2022-11-20T02:20:30.938Z,95.80
2022-11-20T02:21:30.928Z,95.95
2022-11-20T02:22:30.928Z,95.73
2022-11-20T02:23:30.920Z,95.53
2022-11-20T02:24:30.917Z,95.63
2022-11-20T02:25:30.908Z,95.73
2022-11-20T02:26:30.909Z,95.73
2022-11-20T02:27:30.916Z,95.67
2022-11-20T02:28:30.937Z,95.78
2022-11-20T02:29:30.888Z,95.99
2022-11-20T02:30:30.877Z,95.78
2022-11-20T02:31:30.879Z,96.20
2022-11-20T02:32:30.867Z,95.89
2022-11-20T02:33:30.849Z,96.42
2022-11-20T02:34:30.857Z,96.20
2022-11-20T02:35:30.870Z,96.37
2022-11-20T02:36:30.841Z,95.84
2022-11-20T02:37:30.835Z,96.31
2022-11-20T02:38:30.833Z,96.62
2022-11-20T02:39:30.823Z,97.16
2022-11-20T02:40:30.813Z,96.94
2022-11-20T02:41:30.841Z,96.94
2022-11-20T02:42:30.792Z,97.37
2022-11-20T02:43:30.803Z,97.05
2022-11-20T02:44:30.798Z,97.37
2022-11-20T02:45:30.785Z,97.26
2022-11-20T02:46:30.790Z,97.37
2022-11-20T02:47:30.780Z,97.73
2022-11-20T02:48:33.845Z,97.83
2022-11-20T02:49:31.764Z,98.16
2022-11-20T02:50:30.761Z,97.79
2022-11-20T02:51:30.764Z,98.64
2022-11-20T02:52:30.756Z,98.43
2022-11-20T02:53:30.743Z,99.07
2022-11-20T02:54:30.743Z,99.91
2022-11-20T02:55:30.733Z,99.27
2022-11-20T02:56:30.717Z,99.07
2022-11-20T02:57:30.744Z,99.07
2022-11-20T02:58:30.703Z,99.59
2022-11-20T02:59:30.757Z,99.65
2022-11-20T03:00:30.712Z,99.80
2022-11-20T03:01:30.726Z,99.65
2022-11-20T03:02:30.715Z,99.44
2022-11-20T03:03:30.700Z,99.55
2022-11-20T03:04:30.676Z,99.49
2022-11-20T03:05:30.674Z,99.23
2022-11-20T03:06:30.687Z,99.33
2022-11-20T03:07:30.698Z,99.55
2022-11-20T03:08:30.665Z,99.44
2022-11-20T03:09:30.656Z,99.65
2022-11-20T03:10:30.643Z,99.97
2022-11-20T03:11:30.644Z,99.76
2022-11-20T03:12:30.677Z,99.99
2022-11-20T03:13:30.636Z,99.99
2022-11-20T03:14:30.631Z,99.99
2022-11-20T03:15:30.627Z,99.99
2022-11-20T03:16:30.615Z,99.99
2022-11-20T03:17:30.603Z,99.99
2022-11-20T03:18:30.616Z,99.99
2022-11-20T03:19:30.599Z,99.99
2022-11-20T03:20:30.592Z,99.99
2022-11-20T03:21:30.589Z,99.99
2022-11-20T03:22:30.582Z,99.99
2022-11-20T03:23:30.589Z,99.99
2022-11-20T03:24:30.571Z,99.99
2022-11-20T03:25:30.564Z,99.95
2022-11-20T03:26:30.552Z,99.99
2022-11-20T03:27:30.552Z,99.99
2022-11-20T03:28:30.568Z,99.99
2022-11-20T03:29:30.535Z,99.99
2022-11-20T03:30:31.023Z,99.58
2022-11-20T03:31:31.522Z,99.16
2022-11-20T03:32:30.543Z,98.90
2022-11-20T03:33:30.519Z,99.16
2022-11-20T03:34:30.533Z,99.26
2022-11-20T03:35:30.500Z,98.74
2022-11-20T03:36:30.503Z,98.27
2022-11-20T03:37:30.502Z,98.31
2022-11-20T03:38:30.508Z,97.89
2022-11-20T03:39:30.504Z,97.89
2022-11-20T03:40:30.481Z,98.10
2022-11-20T03:41:30.475Z,97.57
2022-11-20T03:42:30.464Z,97.57
2022-11-20T03:43:30.464Z,97.93
2022-11-20T03:44:30.477Z,97.99
2022-11-20T03:45:30.456Z,97.99
2022-11-20T03:46:30.453Z,97.99
2022-11-20T03:47:30.429Z,97.89
2022-11-20T03:48:30.427Z,97.99
2022-11-20T03:49:30.459Z,97.99
2022-11-20T03:50:30.418Z,97.85
2022-11-20T03:51:30.415Z,97.89
2022-11-20T03:52:30.425Z,98.21
2022-11-20T03:53:30.412Z,97.57
2022-11-20T03:54:30.409Z,97.57
2022-11-20T03:55:30.407Z,97.89
2022-11-20T03:56:30.375Z,97.09
2022-11-20T03:57:30.381Z,97.67
2022-11-20T03:58:30.380Z,97.67
2022-11-20T03:59:30.375Z,97.89
2022-11-20T04:00:30.379Z,97.30
2022-11-20T04:01:30.494Z,97.67
2022-11-20T04:02:30.358Z,97.78
2022-11-20T04:03:30.348Z,97.89
2022-11-20T04:04:30.328Z,97.78
2022-11-20T04:05:30.350Z,97.85
2022-11-20T04:06:30.318Z,97.74
2022-11-20T04:07:30.367Z,98.01
2022-11-20T04:08:30.313Z,97.31
2022-11-20T04:09:30.309Z,96.79
2022-11-20T04:10:30.302Z,97.21
2022-11-20T04:11:30.299Z,96.47
2022-11-20T04:12:30.292Z,96.85
2022-11-20T04:13:30.289Z,96.85
2022-11-20T04:14:30.274Z,96.43
2022-11-20T04:15:33.287Z,96.26
2022-11-20T04:16:31.261Z,96.75
2022-11-20T04:17:30.262Z,96.53
2022-11-20T04:18:30.248Z,96.53
2022-11-20T04:19:30.243Z,96.28
2022-11-20T04:20:30.236Z,95.64
2022-11-20T04:21:30.240Z,95.54
2022-11-20T04:22:30.225Z,95.43
2022-11-20T04:23:30.216Z,95.33
2022-11-20T04:24:30.213Z,94.80
2022-11-20T04:25:30.194Z,94.38
2022-11-20T04:26:30.204Z,94.65
2022-11-20T04:27:30.209Z,94.44
2022-11-20T04:28:30.182Z,94.86
2022-11-20T04:29:30.189Z,94.12
2022-11-20T04:30:30.206Z,94.02
2022-11-20T04:31:30.174Z,94.02
2022-11-20T04:32:30.168Z,93.60
2022-11-20T04:33:34.107Z,93.70
2022-11-20T04:34:31.157Z,93.64
2022-11-20T04:35:30.169Z,93.91
2022-11-20T04:36:30.144Z,93.28
2022-11-20T04:37:30.140Z,93.43
2022-11-20T04:38:30.120Z,93.38
2022-11-20T04:39:30.123Z,93.60
2022-11-20T04:40:30.115Z,93.60
2022-11-20T04:41:30.146Z,93.55
2022-11-20T04:42:30.109Z,93.34
2022-11-20T04:43:30.084Z,93.24
2022-11-20T04:44:30.114Z,93.45
2022-11-20T04:45:30.072Z,93.34
2022-11-20T04:46:31.079Z,92.92
2022-11-20T04:47:30.070Z,92.33
2022-11-20T04:48:30.063Z,92.33
2022-11-20T04:49:30.130Z,92.08
2022-11-20T04:50:30.059Z,92.18
2022-11-20T04:51:30.047Z,91.97
2022-11-20T04:52:30.038Z,92.18
2022-11-20T04:53:30.031Z,91.86
2022-11-20T04:54:30.024Z,91.76
2022-11-20T04:55:30.031Z,92.08
2022-11-20T04:56:30.013Z,91.76
2022-11-20T04:57:30.009Z,92.08
2022-11-20T04:58:30.012Z,91.97
2022-11-20T04:59:30.000Z,92.08
2022-11-20T05:00:29.992Z,92.03
2022-11-20T05:01:30.086Z,91.83
2022-11-20T05:02:29.966Z,91.97
2022-11-20T05:03:29.968Z,91.97
2022-11-20T05:04:29.968Z,92.50
2022-11-20T05:05:29.963Z,92.50
2022-11-20T05:06:29.947Z,93.24
2022-11-20T05:07:30.006Z,93.24
2022-11-20T05:08:29.929Z,93.45
2022-11-20T05:09:30.932Z,93.45
2022-11-20T05:10:29.920Z,93.45
2022-11-20T05:11:29.918Z,93.87
2022-11-20T05:12:29.908Z,93.34
2022-11-20T05:13:29.902Z,93.34
2022-11-20T05:14:29.897Z,93.77
2022-11-20T05:15:29.905Z,93.93
2022-11-20T05:16:29.882Z,93.87
2022-11-20T05:17:29.856Z,93.83
2022-11-20T05:18:29.876Z,93.83
2022-11-20T05:19:29.865Z,93.57
2022-11-20T05:20:29.881Z,93.37
2022-11-20T05:21:29.848Z,93.51
2022-11-20T05:22:29.848Z,93.15
2022-11-20T05:23:29.850Z,93.37
2022-11-20T05:24:29.837Z,92.41
2022-11-20T05:25:29.820Z,91.96
2022-11-20T05:26:29.840Z,91.68
2022-11-20T05:27:29.800Z,91.42
2022-11-20T05:28:29.803Z,91.32
2022-11-20T05:29:29.799Z,91.22
2022-11-20T05:30:29.780Z,90.86
2022-11-20T05:31:29.792Z,90.69
2022-11-20T05:32:29.772Z,90.86
2022-11-20T05:33:29.756Z,90.55
2022-11-20T05:34:29.756Z,89.81
2022-11-20T05:35:29.752Z,89.95
2022-11-20T05:36:29.749Z,89.64
2022-11-20T05:37:29.733Z,89.39
2022-11-20T05:38:29.729Z,89.70
2022-11-20T05:39:29.789Z,89.70
2022-11-20T05:40:29.717Z,89.49
2022-11-20T05:41:29.715Z,89.70
2022-11-20T05:42:29.708Z,89.39
2022-11-20T05:43:29.707Z,89.24
2022-11-20T05:44:29.680Z,89.59
2022-11-20T05:45:29.677Z,89.66
2022-11-20T05:46:29.924Z,88.75
2022-11-20T05:47:29.688Z,89.49
2022-11-20T05:48:29.656Z,88.82
2022-11-20T05:49:29.648Z,88.75
2022-11-20T05:50:29.640Z,89.53
2022-11-20T05:51:29.632Z,89.81
2022-11-20T05:52:29.640Z,88.69
2022-11-20T05:53:29.618Z,88.75
2022-11-20T05:54:29.612Z,89.70
2022-11-20T05:55:29.603Z,89.59
2022-11-20T05:56:29.597Z,89.17
2022-11-20T05:57:29.595Z,88.75
2022-11-20T05:58:29.599Z,89.49
2022-11-20T05:59:29.592Z,88.96
2022-11-20T06:00:29.575Z,89.49
2022-11-20T06:01:29.572Z,89.56
2022-11-20T06:02:29.595Z,88.96
2022-11-20T06:03:29.570Z,89.14
2022-11-20T06:04:29.548Z,89.34
2022-11-20T06:05:29.544Z,89.49
2022-11-20T06:06:29.531Z,89.45
2022-11-20T06:07:29.558Z,89.03
2022-11-20T06:08:29.520Z,89.14
2022-11-20T06:09:29.504Z,88.92
2022-11-20T06:10:29.519Z,89.03
2022-11-20T06:11:29.496Z,89.20
2022-11-20T06:12:29.500Z,88.67
2022-11-20T06:13:29.494Z,88.40
2022-11-20T06:14:29.480Z,88.71
2022-11-20T06:15:29.489Z,88.04
2022-11-20T06:16:29.472Z,88.82
2022-11-20T06:17:29.460Z,88.35
2022-11-20T06:18:29.463Z,88.89
2022-11-20T06:19:29.453Z,88.57
2022-11-20T06:20:29.449Z,89.09
2022-11-20T06:21:29.444Z,88.78
2022-11-20T06:22:29.431Z,88.99
2022-11-20T06:23:29.419Z,89.34
2022-11-20T06:24:29.412Z,88.78
2022-11-20T06:25:29.409Z,89.09
2022-11-20T06:26:29.410Z,88.78
2022-11-20T06:27:29.391Z,89.09
2022-11-20T06:28:29.384Z,88.25
2022-11-20T06:29:33.788Z,88.15
2022-11-20T06:30:30.390Z,88.35
2022-11-20T06:31:29.360Z,88.25
2022-11-20T06:32:29.352Z,88.15
2022-11-20T06:33:29.351Z,88.35
2022-11-20T06:34:29.336Z,89.62
2022-11-20T06:35:29.328Z,89.20
2022-11-20T06:36:29.320Z,90.46
2022-11-20T06:37:29.341Z,91.03
2022-11-20T06:38:29.313Z,90.71
2022-11-20T06:39:29.296Z,91.07
2022-11-20T06:40:29.297Z,91.39
2022-11-20T06:41:29.291Z,91.96
2022-11-20T06:42:29.299Z,92.12
2022-11-20T06:43:29.279Z,93.18
2022-11-20T06:44:29.287Z,93.32
2022-11-20T06:45:29.267Z,93.32
2022-11-20T06:46:29.252Z,93.22
2022-11-20T06:47:29.251Z,93.32
2022-11-20T06:48:29.243Z,93.32
2022-11-20T06:49:29.252Z,93.38
2022-11-20T06:50:29.227Z,93.22
2022-11-20T06:51:29.211Z,93.38
2022-11-20T06:52:29.217Z,92.92
2022-11-20T06:53:29.204Z,92.65
2022-11-20T06:54:29.192Z,92.08
2022-11-20T06:55:29.206Z,91.60
2022-11-20T06:56:29.180Z,91.81
2022-11-20T06:57:29.180Z,92.38
2022-11-20T06:58:29.173Z,93.28
2022-11-20T06:59:29.167Z,93.43
2022-11-20T07:00:29.218Z,93.64
2022-11-20T07:01:29.179Z,94.80
2022-11-20T07:02:29.161Z,94.34
2022-11-20T07:03:29.137Z,94.69
2022-11-20T07:04:29.126Z,94.90
2022-11-20T07:05:29.127Z,95.22
2022-11-20T07:06:29.125Z,95.07
2022-11-20T07:07:29.151Z,94.96
2022-11-20T07:08:29.099Z,94.60
2022-11-20T07:09:29.099Z,94.12
2022-11-20T07:10:29.099Z,94.23
2022-11-20T07:11:29.099Z,94.38
2022-11-20T07:12:29.072Z,95.32
2022-11-20T07:13:29.060Z,95.75
2022-11-20T07:14:29.056Z,96.02
2022-11-20T07:15:29.044Z,95.87
2022-11-20T07:16:29.037Z,95.62
2022-11-20T07:17:29.053Z,95.40
2022-11-20T07:18:29.032Z,95.20
2022-11-20T07:19:29.026Z,94.08
2022-11-20T07:20:29.127Z,94.67
2022-11-20T07:21:29.000Z,94.35
2022-11-20T07:22:29.001Z,94.56
2022-11-20T07:23:29.020Z,94.52
2022-11-20T07:24:28.996Z,93.93
2022-11-20T07:25:28.985Z,93.57
2022-11-20T07:26:28.989Z,93.89
2022-11-20T07:27:28.968Z,94.04
2022-11-20T07:28:28.968Z,93.57
2022-11-20T07:29:28.981Z,93.51
2022-11-20T07:30:28.939Z,93.99
2022-11-20T07:31:28.924Z,93.47
2022-11-20T07:32:28.937Z,93.37
2022-11-20T07:33:28.924Z,93.05
2022-11-20T07:34:28.935Z,93.26
2022-11-20T07:35:28.911Z,92.94
2022-11-20T07:36:28.911Z,92.90
2022-11-20T07:37:28.895Z,93.15
2022-11-20T07:38:28.893Z,92.42
2022-11-20T07:39:28.879Z,92.21
2022-11-20T07:40:28.887Z,93.15
2022-11-20T07:41:28.873Z,93.68
2022-11-20T07:42:28.863Z,93.37
2022-11-20T07:43:28.855Z,93.37
2022-11-20T07:44:28.852Z,93.68
2022-11-20T07:45:28.886Z,93.37
2022-11-20T07:46:28.833Z,93.32
2022-11-20T07:47:28.832Z,93.22
2022-11-20T07:48:28.815Z,93.01
2022-11-20T07:49:28.808Z,93.01
2022-11-20T07:50:28.827Z,93.07
2022-11-20T07:51:28.809Z,93.07
2022-11-20T07:52:28.783Z,93.07
2022-11-20T07:53:28.809Z,92.33
2022-11-20T07:54:28.773Z,91.87
2022-11-20T07:55:28.779Z,91.56
2022-11-20T07:56:28.791Z,91.45
2022-11-20T07:57:28.780Z,91.14
2022-11-20T07:58:28.751Z,90.89
2022-11-20T07:59:28.753Z,90.67
2022-11-20T08:00:28.799Z,90.05
2022-11-20T08:01:28.784Z,90.25
2022-11-20T08:02:28.735Z,90.67
2022-11-20T08:03:28.723Z,90.42
2022-11-20T08:04:28.711Z,90.64
2022-11-20T08:05:28.712Z,90.64
2022-11-20T08:06:28.703Z,90.53
2022-11-20T08:07:28.728Z,90.17
2022-11-20T08:08:31.318Z,89.75
2022-11-20T08:09:28.683Z,89.34
2022-11-20T08:10:28.675Z,89.61
2022-11-20T08:11:28.671Z,89.23
2022-11-20T08:12:28.680Z,88.60
2022-11-20T08:13:28.652Z,88.60
2022-11-20T08:14:28.652Z,88.81
2022-11-20T08:15:28.648Z,88.60
2022-11-20T08:16:28.631Z,88.35
2022-11-20T08:17:28.647Z,88.67
2022-11-20T08:18:31.592Z,88.35
2022-11-20T08:19:29.643Z,88.60
2022-11-20T08:20:28.616Z,87.97
2022-11-20T08:21:28.612Z,87.83
2022-11-20T08:22:28.611Z,88.04
2022-11-20T08:23:28.591Z,88.18
2022-11-20T08:24:28.588Z,87.72
2022-11-20T08:25:28.572Z,88.14
2022-11-20T08:26:28.562Z,87.20
2022-11-20T08:27:28.571Z,86.92
2022-11-20T08:28:28.573Z,87.45
2022-11-20T08:29:28.558Z,87.55
2022-11-20T08:30:28.547Z,88.18
2022-11-20T08:31:28.539Z,87.87
2022-11-20T08:32:28.536Z,88.07
2022-11-20T08:33:28.543Z,88.07
2022-11-20T08:34:28.531Z,87.97
2022-11-20T08:35:28.504Z,88.77
2022-11-20T08:36:29.511Z,88.24
2022-11-20T08:37:28.507Z,87.93
2022-11-20T08:38:28.502Z,90.13
2022-11-20T08:39:28.503Z,91.28
2022-11-20T08:40:28.491Z,89.88
2022-11-20T08:41:28.479Z,88.73
2022-11-20T08:42:28.478Z,88.39
2022-11-20T08:43:28.463Z,87.76
2022-11-20T08:44:28.468Z,88.43
2022-11-20T08:45:32.509Z,88.85
2022-11-20T08:46:30.457Z,89.90
2022-11-20T08:47:28.440Z,90.11
2022-11-20T08:48:28.444Z,90.59
2022-11-20T08:49:28.466Z,90.59
2022-11-20T08:50:28.416Z,90.76
2022-11-20T08:51:28.420Z,89.92
2022-11-20T08:52:28.420Z,90.20
2022-11-20T08:53:28.404Z,90.68
2022-11-20T08:54:29.422Z,89.42
2022-11-20T08:55:28.402Z,88.48
2022-11-20T08:56:28.391Z,88.17
2022-11-20T08:57:28.383Z,88.23
2022-11-20T08:58:28.367Z,87.39
2022-11-20T09:00:03.660Z,86.66
2022-11-20T09:00:30.364Z,86.14
2022-11-20T09:01:28.425Z,85.93
2022-11-20T09:02:28.344Z,85.97
2022-11-20T09:03:32.693Z,85.24
2022-11-20T09:04:29.388Z,85.02
2022-11-20T09:05:28.334Z,85.86
2022-11-20T09:06:28.331Z,86.49
2022-11-20T09:07:28.366Z,86.70
2022-11-20T09:08:28.319Z,86.70
2022-11-20T09:09:28.307Z,86.00
2022-11-20T09:10:28.304Z,86.18
2022-11-20T09:11:28.309Z,86.49
2022-11-20T09:12:28.309Z,87.12
2022-11-20T09:13:28.279Z,86.80
2022-11-20T09:14:28.291Z,86.98
2022-11-20T09:15:28.263Z,86.98
2022-11-20T09:16:28.263Z,87.29
2022-11-20T09:17:28.263Z,86.52
2022-11-20T09:18:28.239Z,86.20
2022-11-20T09:19:35.407Z,85.99
2022-11-20T09:20:30.246Z,85.99
2022-11-20T09:21:29.234Z,85.85
2022-11-20T09:22:28.231Z,85.85
2022-11-20T09:23:28.230Z,85.60
2022-11-20T09:24:28.215Z,85.50
2022-11-20T09:25:28.204Z,86.02
2022-11-20T09:26:28.195Z,86.08
2022-11-20T09:27:28.211Z,85.77
2022-11-20T09:28:28.187Z,85.67
2022-11-20T09:29:28.187Z,83.47
2022-11-20T09:30:28.171Z,82.53
2022-11-20T09:31:28.171Z,82.36
2022-11-20T09:32:28.148Z,83.20
2022-11-20T09:33:28.175Z,84.03
2022-11-20T09:34:28.158Z,84.31
2022-11-20T09:35:28.160Z,83.89
2022-11-20T09:36:28.132Z,84.41
2022-11-20T09:37:28.127Z,84.00
2022-11-20T09:38:28.139Z,83.95
2022-11-20T09:39:28.111Z,83.85
2022-11-20T09:40:28.108Z,83.01
2022-11-20T09:41:28.090Z,83.01
2022-11-20T09:42:28.095Z,83.44
2022-11-20T09:43:31.126Z,83.12
2022-11-20T09:44:29.079Z,82.56
2022-11-20T09:45:28.073Z,82.04
2022-11-20T09:46:28.059Z,83.50
2022-11-20T09:47:28.060Z,82.87
2022-11-20T09:48:28.050Z,82.53
2022-11-20T09:49:32.393Z,82.63
2022-11-20T09:50:29.034Z,82.63
2022-11-20T09:51:28.036Z,82.00
2022-11-20T09:52:28.027Z,80.75
2022-11-20T09:53:28.047Z,80.16
2022-11-20T09:54:28.018Z,80.58
2022-11-20T09:55:28.011Z,80.05
2022-11-20T09:56:27.994Z,79.95
2022-11-20T09:57:28.003Z,80.16
2022-11-20T09:58:28.019Z,80.79
2022-11-20T09:59:27.985Z,81.35
2022-11-20T10:00:27.982Z,82.07
2022-11-20T10:01:28.050Z,82.46
2022-11-20T10:02:27.964Z,82.98
2022-11-20T10:03:27.955Z,82.87
2022-11-20T10:04:27.959Z,82.94
2022-11-20T10:05:27.936Z,82.42
2022-11-20T10:06:27.933Z,81.69
2022-11-20T10:07:32.524Z,80.44
2022-11-20T10:08:29.924Z,80.02
2022-11-20T10:09:27.924Z,80.13
2022-11-20T10:10:27.918Z,80.89
2022-11-20T10:11:27.954Z,82.31
2022-11-20T10:12:28.891Z,81.93
2022-11-20T10:13:27.886Z,81.59
2022-11-20T10:14:27.875Z,80.27
2022-11-20T10:15:27.879Z,80.62
2022-11-20T10:16:27.880Z,80.82
2022-11-20T10:17:27.879Z,81.76
2022-11-20T10:18:27.860Z,81.56
2022-11-20T10:19:27.847Z,82.60
2022-11-20T10:20:27.838Z,83.81
2022-11-20T10:21:27.934Z,81.93
2022-11-20T10:22:27.819Z,81.52
2022-11-20T10:23:28.822Z,81.31
2022-11-20T10:24:27.827Z,80.68
2022-11-20T10:25:27.884Z,81.52
2022-11-20T10:26:27.803Z,81.10
2022-11-20T10:27:27.795Z,81.79
2022-11-20T10:28:27.800Z,82.10
2022-11-20T10:29:27.784Z,80.33
2022-11-20T10:30:27.784Z,79.95
2022-11-20T10:31:27.911Z,80.44
2022-11-20T10:32:27.762Z,80.75
2022-11-20T10:33:38.804Z,81.45
2022-11-20T10:34:28.766Z,81.55
2022-11-20T10:35:27.743Z,79.71
2022-11-20T10:36:27.738Z,79.29
2022-11-20T10:37:27.730Z,80.05
2022-11-20T10:38:27.722Z,80.47
2022-11-20T10:39:27.738Z,80.89
2022-11-20T10:40:27.739Z,80.41
2022-11-20T10:41:28.134Z,81.66
2022-11-20T10:42:27.698Z,81.83
2022-11-20T10:43:27.684Z,82.25
2022-11-20T10:44:27.684Z,82.46
2022-11-20T10:45:27.696Z,82.31
2022-11-20T10:46:27.665Z,81.76
2022-11-20T10:47:27.810Z,81.23
2022-11-20T10:48:27.659Z,80.71
2022-11-20T10:49:27.650Z,80.30
2022-11-20T10:50:27.657Z,79.98
2022-11-20T10:51:27.637Z,80.19
2022-11-20T10:52:27.631Z,79.98
2022-11-20T10:53:27.637Z,80.19
2022-11-20T10:54:27.621Z,80.40
2022-11-20T10:55:27.618Z,80.51
2022-11-20T10:56:27.625Z,79.98
2022-11-20T10:57:27.597Z,80.02
2022-11-20T10:58:27.585Z,80.02
2022-11-20T10:59:27.583Z,80.23
2022-11-20T11:00:27.590Z,81.48
2022-11-20T11:01:27.721Z,81.55
2022-11-20T11:02:27.556Z,79.81
2022-11-20T11:03:27.569Z,79.95
2022-11-20T11:04:27.585Z,80.47
2022-11-20T11:05:27.606Z,80.68
2022-11-20T11:06:27.544Z,80.23
2022-11-20T11:07:27.620Z,79.81
2022-11-20T11:08:27.517Z,79.81
2022-11-20T11:09:27.520Z,79.81
2022-11-20T11:10:27.509Z,79.95
2022-11-20T11:11:27.520Z,79.81
2022-11-20T11:12:27.499Z,80.23
2022-11-20T11:13:27.498Z,80.82
2022-11-20T11:14:27.494Z,82.20
2022-11-20T11:15:27.487Z,79.87
2022-11-20T11:16:27.467Z,79.00
2022-11-20T11:17:27.479Z,76.78
2022-11-20T11:18:27.482Z,77.37
2022-11-20T11:19:27.454Z,76.02
2022-11-20T11:20:27.450Z,74.74
2022-11-20T11:21:27.433Z,74.74
2022-11-20T11:22:27.439Z,75.12
2022-11-20T11:23:27.445Z,74.80
2022-11-20T11:24:41.745Z,74.53
2022-11-20T11:25:29.417Z,74.74
2022-11-20T11:26:27.395Z,75.54
2022-11-20T11:27:27.394Z,74.46
2022-11-20T11:28:27.387Z,75.60
2022-11-20T11:29:27.412Z,74.29
2022-11-20T11:30:27.374Z,69.30
2022-11-20T11:31:27.365Z,65.95
2022-11-20T11:32:27.367Z,68.88
2022-11-20T11:33:27.346Z,68.27
2022-11-20T11:34:28.351Z,68.15
2022-11-20T11:35:27.350Z,64.66
2022-11-20T11:36:27.338Z,65.57
2022-11-20T11:37:27.348Z,56.71
2022-11-20T11:38:27.314Z,59.81
2022-11-20T11:39:27.314Z,55.72
2022-11-20T11:40:27.355Z,56.92
2022-11-20T11:41:27.288Z,52.28
2022-11-20T11:42:27.334Z,57.89
2022-11-20T11:43:27.283Z,57.87
2022-11-20T11:44:27.281Z,56.61
2022-11-20T11:45:27.275Z,58.94
2022-11-20T11:46:27.266Z,52.90
2022-11-20T11:47:27.246Z,54.57
2022-11-20T11:48:27.257Z,54.05
2022-11-20T11:49:27.241Z,54.25
2022-11-20T11:50:27.236Z,53.31
2022-11-20T11:51:27.227Z,54.80
2022-11-20T11:52:27.226Z,51.40
2022-11-20T11:53:27.234Z,51.22
2022-11-20T11:54:27.192Z,45.51
2022-11-20T11:55:27.205Z,46.96
2022-11-20T11:56:27.205Z,47.92
2022-11-20T11:57:27.183Z,48.89
2022-11-20T11:58:27.197Z,49.71
2022-11-20T11:59:27.177Z,50.29
2022-11-20T12:00:27.170Z,52.28
2022-11-20T12:01:27.169Z,53.64
2022-11-20T12:02:27.193Z,52.49
2022-11-20T12:03:27.146Z,51.98
2022-11-20T12:04:27.152Z,53.95
2022-11-20T12:05:27.137Z,52.85
2022-11-20T12:06:27.134Z,51.73
2022-11-20T12:07:48.030Z,51.99
2022-11-20T12:08:29.165Z,49.45
2022-11-20T12:09:27.109Z,49.36
2022-11-20T12:10:27.094Z,47.02
2022-11-20T12:11:27.110Z,45.58
2022-11-20T12:12:27.086Z,44.44
2022-11-20T12:13:27.087Z,42.41
2022-11-20T12:14:27.087Z,45.18
2022-11-20T12:15:27.066Z,47.70
2022-11-20T12:16:27.058Z,45.34
2022-11-20T12:17:27.049Z,45.03
2022-11-20T12:18:27.042Z,43.06
2022-11-20T12:19:27.041Z,44.45
2022-11-20T12:20:27.055Z,45.89
2022-11-20T12:21:27.022Z,47.06
2022-11-20T12:22:27.016Z,47.37
2022-11-20T12:23:27.008Z,47.27
2022-11-20T12:24:27.006Z,49.69
2022-11-20T12:25:27.013Z,48.49
2022-11-20T12:26:26.983Z,48.03
2022-11-20T12:27:26.965Z,46.26
2022-11-20T12:28:26.969Z,45.83
2022-11-20T12:29:26.967Z,45.68
2022-11-20T12:30:26.969Z,44.77
2022-11-20T12:31:27.024Z,43.38
2022-11-20T12:32:26.946Z,44.71
2022-11-20T12:33:26.933Z,43.79
2022-11-20T12:34:26.926Z,45.06
2022-11-20T12:35:26.924Z,46.20
2022-11-20T12:36:26.921Z,46.71
2022-11-20T12:37:26.929Z,46.63
2022-11-20T12:38:26.905Z,46.98
2022-11-20T12:39:26.889Z,47.11
2022-11-20T12:40:26.885Z,48.74
2022-11-20T12:41:26.914Z,49.38
2022-11-20T12:42:26.872Z,48.73
2022-11-20T12:43:26.869Z,49.57
2022-11-20T12:44:26.856Z,49.47
2022-11-20T12:45:26.853Z,49.72
2022-11-20T12:46:26.865Z,50.10
2022-11-20T12:47:26.841Z,52.01
2022-11-20T12:48:26.847Z,53.89
2022-11-20T12:49:26.813Z,55.41
2022-11-20T12:50:26.821Z,56.10
2022-11-20T12:51:26.816Z,57.26
2022-11-20T12:52:26.812Z,58.87